createdAt,value
2019-02-16T00:02:17.369Z,26.1
2019-02-16T00:05:23.330Z,26.2
2019-02-16T00:08:29.292Z,26.2
2019-02-16T00:11:35.161Z,26.2
2019-02-16T00:14:41.110Z,26.2
2019-02-16T00:17:46.994Z,26.2
2019-02-16T00:20:52.926Z,26.2
2019-02-16T00:24:08.648Z,26.2
2019-02-16T00:27:14.517Z,26.3
2019-02-16T00:30:20.634Z,26.3
2019-02-16T00:33:26.569Z,26.3
2019-02-16T00:36:32.566Z,26.3
2019-02-16T00:39:38.624Z,26.2
2019-02-16T00:42:44.495Z,26.2
2019-02-16T00:45:50.547Z,26.3
2019-02-16T00:48:56.411Z,26.4
2019-02-16T00:52:02.566Z,26.3
2019-02-16T00:55:08.484Z,26.3
2019-02-16T00:58:14.481Z,26.3
2019-02-16T01:01:20.442Z,26.4
2019-02-16T01:04:26.314Z,26.3
2019-02-16T01:07:32.270Z,26.3
2019-02-16T01:10:38.216Z,26.3
2019-02-16T01:13:44.182Z,26.4
2019-02-16T01:16:50.145Z,26.4
2019-02-16T01:19:56.008Z,26.4
2019-02-16T01:23:02.171Z,26.4
2019-02-16T01:26:08.135Z,26.4
2019-02-16T01:29:14.061Z,26.3
2019-02-16T01:32:19.895Z,26.4
2019-02-16T01:35:25.900Z,26.4
2019-02-16T01:38:34.503Z,26.4
2019-02-16T01:41:40.479Z,26.5
2019-02-16T01:44:46.441Z,26.4
2019-02-16T01:47:52.542Z,26.4
2019-02-16T01:50:58.576Z,26.4
2019-02-16T01:54:04.455Z,26.5
2019-02-16T01:57:10.590Z,26.5
2019-02-16T02:00:16.653Z,26.5
2019-02-16T02:03:22.525Z,26.5
2019-02-16T02:06:28.472Z,26.4
2019-02-16T02:09:34.431Z,26.5
2019-02-16T02:12:40.386Z,26.5
2019-02-16T02:15:46.264Z,26.5
2019-02-16T02:18:52.409Z,26.5
2019-02-16T02:21:58.362Z,26.5
2019-02-16T02:25:04.339Z,26.5
2019-02-16T02:28:10.299Z,26.4
2019-02-16T02:31:16.158Z,26.4
2019-02-16T02:34:22.112Z,26.5
2019-02-16T02:37:27.983Z,26.5
2019-02-16T02:40:34.032Z,26.5
2019-02-16T02:43:39.970Z,26.5
2019-02-16T02:46:45.954Z,26.5
2019-02-16T02:49:52.010Z,26.5
2019-02-16T02:52:57.881Z,26.5
2019-02-16T02:56:03.927Z,26.6
2019-02-16T02:59:09.885Z,26.6
2019-02-16T03:02:15.758Z,26.6
2019-02-16T03:05:21.717Z,26.6
2019-02-16T03:08:27.703Z,26.6
2019-02-16T03:11:33.728Z,26.5
2019-02-16T03:14:39.791Z,26.6
2019-02-16T03:17:45.863Z,26.6
2019-02-16T03:20:51.989Z,26.7
2019-02-16T03:23:58.076Z,26.7
2019-02-16T03:27:04.139Z,26.6
2019-02-16T03:30:10.104Z,26.6
2019-02-16T03:33:16.071Z,26.6
2019-02-16T03:36:22.040Z,26.6
2019-02-16T03:39:27.905Z,26.6
2019-02-16T03:42:33.958Z,26.7
2019-02-16T03:45:39.914Z,26.7
2019-02-16T03:48:45.967Z,26.7
2019-02-16T03:51:52.446Z,26.7
2019-02-16T03:54:58.406Z,26.7
2019-02-16T03:58:04.475Z,26.7
2019-02-16T04:01:10.526Z,26.8
2019-02-16T04:04:16.684Z,26.7
2019-02-16T04:07:22.559Z,26.8
2019-02-16T04:10:31.059Z,26.8
2019-02-16T04:13:36.939Z,26.8
2019-02-16T04:16:42.881Z,26.8
2019-02-16T04:19:48.942Z,26.8
2019-02-16T04:22:54.889Z,26.8
2019-02-16T04:26:00.753Z,26.8
2019-02-16T04:29:06.945Z,26.9
2019-02-16T04:32:12.890Z,26.9
2019-02-16T04:35:18.841Z,26.9
2019-02-16T04:38:24.791Z,26.9
2019-02-16T04:41:30.664Z,26.9
2019-02-16T04:44:36.619Z,26.9
2019-02-16T04:47:42.604Z,26.9
2019-02-16T04:50:48.677Z,26.9
2019-02-16T04:53:54.705Z,26.9
2019-02-16T04:57:00.778Z,27
2019-02-16T05:00:06.733Z,27
2019-02-16T05:03:12.610Z,27
2019-02-16T05:06:18.749Z,27
2019-02-16T05:09:24.623Z,27
2019-02-16T05:12:30.669Z,27
2019-02-16T05:15:36.540Z,27
2019-02-16T05:18:42.589Z,27.1
2019-02-16T05:21:48.660Z,27.1
2019-02-16T05:24:54.616Z,27.1
2019-02-16T05:28:03.753Z,27.1
2019-02-16T05:31:09.711Z,27.1
2019-02-16T05:34:15.672Z,27
2019-02-16T05:37:21.551Z,27
2019-02-16T05:40:27.483Z,27
2019-02-16T05:43:33.442Z,27
2019-02-16T05:46:39.316Z,26.9
2019-02-16T05:49:45.277Z,26.8
2019-02-16T05:52:55.212Z,26.8
2019-02-16T05:56:01.176Z,26.8
2019-02-16T05:59:08.873Z,26.8
2019-02-16T06:02:14.853Z,26.8
2019-02-16T06:05:20.804Z,26.7
2019-02-16T06:08:26.872Z,26.6
2019-02-16T06:11:32.917Z,26.6
2019-02-16T06:14:38.864Z,26.5
2019-02-16T06:17:44.840Z,26.5
2019-02-16T06:20:50.749Z,26.5
2019-02-16T06:23:56.756Z,26.5
2019-02-16T06:27:02.693Z,26.4
2019-02-16T06:30:08.679Z,26.4
2019-02-16T06:33:14.638Z,26.4
2019-02-16T06:36:20.516Z,26.5
2019-02-16T06:39:26.570Z,26.5
2019-02-16T06:42:34.929Z,26.5
2019-02-16T06:45:41.041Z,26.4
2019-02-16T06:48:47.012Z,26.4
2019-02-16T06:51:52.960Z,26.6
2019-02-16T06:54:58.914Z,26.6
2019-02-16T06:58:05.079Z,26.5
2019-02-16T07:01:11.053Z,26.6
2019-02-16T07:04:17.002Z,26.6
2019-02-16T07:07:22.876Z,26.6
2019-02-16T07:10:28.925Z,26.5
2019-02-16T07:13:34.811Z,26.5
2019-02-16T07:16:40.736Z,26.5
2019-02-16T07:19:46.698Z,26.5
2019-02-16T07:22:52.661Z,26.5
2019-02-16T07:25:58.727Z,26.2
2019-02-16T07:29:06.730Z,26.3
2019-02-16T07:32:12.688Z,26.3
2019-02-16T07:35:18.563Z,26.9
2019-02-16T07:38:24.610Z,26.3
2019-02-16T07:41:30.496Z,26.4
2019-02-16T07:44:39.342Z,26.2
2019-02-16T07:47:45.458Z,26.2
2019-02-16T07:50:51.414Z,26.3
2019-02-16T07:54:00.025Z,26.7
2019-02-16T07:57:06.019Z,26.6
2019-02-16T08:00:12.062Z,26.9
2019-02-16T08:03:17.944Z,26.3
2019-02-16T08:06:23.990Z,26.2
2019-02-16T08:09:29.938Z,26.2
2019-02-16T08:12:36.018Z,26.6
2019-02-16T08:15:41.998Z,26.1
2019-02-16T08:18:47.924Z,26
2019-02-16T08:21:53.986Z,26
2019-02-16T08:24:59.949Z,26.5
2019-02-16T08:28:06.023Z,25.9
2019-02-16T08:31:12.070Z,26
2019-02-16T08:34:17.979Z,26.4
2019-02-16T08:37:24.094Z,26
2019-02-16T08:40:30.052Z,26.2
2019-02-16T08:43:36.116Z,26
2019-02-16T08:46:43.859Z,26.1
2019-02-16T08:49:49.877Z,25.9
2019-02-16T08:52:55.759Z,26
2019-02-16T08:56:04.460Z,25.9
2019-02-16T08:59:10.526Z,25.9
2019-02-16T09:02:16.587Z,25.9
2019-02-16T09:05:22.553Z,25.9
2019-02-16T09:08:28.426Z,25.9
2019-02-16T09:11:34.367Z,26
2019-02-16T09:14:40.324Z,26
2019-02-16T09:17:46.202Z,26
2019-02-16T09:20:52.288Z,26
2019-02-16T09:24:00.044Z,25.9
2019-02-16T09:27:10.602Z,26
2019-02-16T09:30:16.889Z,26
2019-02-16T09:33:22.768Z,26.1
2019-02-16T09:36:28.827Z,26
2019-02-16T09:39:34.746Z,26
2019-02-16T09:42:40.721Z,26
2019-02-16T09:45:46.679Z,26.1
2019-02-16T09:48:52.564Z,26.1
2019-02-16T09:51:58.498Z,26
2019-02-16T09:55:04.376Z,26
2019-02-16T09:58:10.315Z,26.1
2019-02-16T10:01:16.192Z,26.1
2019-02-16T10:04:22.249Z,26
2019-02-16T10:07:29.913Z,26
2019-02-16T10:10:36.417Z,26
2019-02-16T10:13:44.168Z,26
2019-02-16T10:16:50.044Z,26
2019-02-16T10:19:56.043Z,26
2019-02-16T10:23:01.999Z,26
2019-02-16T10:26:08.005Z,25.9
2019-02-16T10:29:13.927Z,26
2019-02-16T10:32:19.887Z,26
2019-02-16T10:35:25.829Z,25.9
2019-02-16T10:38:31.702Z,25.9
2019-02-16T10:41:37.756Z,25.9
2019-02-16T10:44:43.629Z,25.8
2019-02-16T10:47:49.571Z,25.9
2019-02-16T10:50:55.640Z,25.9
2019-02-16T10:54:01.722Z,25.9
2019-02-16T10:57:07.665Z,25.9
2019-02-16T11:00:13.729Z,25.8
2019-02-16T11:03:19.793Z,25.9
2019-02-16T11:06:27.801Z,25.9
2019-02-16T11:09:33.747Z,25.8
2019-02-16T11:12:39.618Z,25.8
2019-02-16T11:15:45.563Z,25.7
2019-02-16T11:18:51.537Z,25.7
2019-02-16T11:21:57.797Z,25.6
2019-02-16T11:25:05.735Z,25.7
2019-02-16T11:28:11.665Z,25.6
2019-02-16T11:31:17.580Z,25.6
2019-02-16T11:34:23.472Z,25.6
2019-02-16T11:37:29.537Z,25.6
2019-02-16T11:40:35.501Z,25.6
2019-02-16T11:43:41.772Z,25.6
2019-02-16T11:46:47.757Z,25.5
2019-02-16T11:49:53.627Z,25.5
2019-02-16T11:52:59.641Z,25.6
2019-02-16T11:56:05.647Z,25.6
2019-02-16T11:59:11.671Z,25.4
2019-02-16T12:02:17.628Z,25.4
2019-02-16T12:05:23.499Z,25.4
2019-02-16T12:08:29.451Z,25.5
2019-02-16T12:11:35.405Z,25.4
2019-02-16T12:14:41.276Z,25.4
2019-02-16T12:17:47.233Z,25.3
2019-02-16T12:20:55.849Z,25.4
2019-02-16T12:24:01.807Z,25.3
2019-02-16T12:27:07.863Z,25.3
2019-02-16T12:30:13.933Z,25.3
2019-02-16T12:33:19.804Z,25.3
2019-02-16T12:36:25.850Z,25.2
2019-02-16T12:39:31.720Z,25.3
2019-02-16T12:42:37.670Z,25.2
2019-02-16T12:45:51.723Z,25.3
2019-02-16T12:49:00.541Z,25.2
2019-02-16T12:52:09.164Z,25.2
2019-02-16T12:55:15.740Z,25.3
2019-02-16T12:58:24.399Z,25.1
2019-02-16T13:01:30.321Z,25.1
2019-02-16T13:04:36.383Z,25.2
2019-02-16T13:07:42.353Z,25.2
2019-02-16T13:10:48.314Z,25
2019-02-16T13:13:54.294Z,25.1
2019-02-16T13:17:00.332Z,25
2019-02-16T13:20:06.398Z,24.9
2019-02-16T13:23:12.441Z,24.9
2019-02-16T13:26:18.416Z,25
2019-02-16T13:29:27.196Z,24.9
2019-02-16T13:32:33.204Z,24.9
2019-02-16T13:35:39.164Z,24.9
2019-02-16T13:38:45.123Z,24.9
2019-02-16T13:41:51.079Z,24.8
2019-02-16T13:44:56.954Z,24.9
2019-02-16T13:48:02.901Z,24.8
2019-02-16T13:51:09.064Z,24.8
2019-02-16T13:54:15.026Z,24.8
2019-02-16T13:57:20.984Z,24.8
2019-02-16T14:00:27.048Z,24.7
2019-02-16T14:03:33.084Z,24.8
2019-02-16T14:06:39.073Z,24.7
2019-02-16T14:09:44.953Z,24.7
2019-02-16T14:12:50.988Z,24.8
2019-02-16T14:15:56.884Z,24.7
2019-02-16T14:19:02.756Z,24.7
2019-02-16T14:22:08.787Z,24.6
2019-02-16T14:25:14.835Z,24.7
2019-02-16T14:28:20.705Z,24.7
2019-02-16T14:31:29.315Z,24.7
2019-02-16T14:34:35.182Z,24.7
2019-02-16T14:37:41.124Z,24.7
2019-02-16T14:40:50.114Z,24.6
2019-02-16T14:43:55.945Z,24.6
2019-02-16T14:47:01.981Z,24.6
2019-02-16T14:50:07.934Z,24.6
2019-02-16T14:53:13.996Z,24.6
2019-02-16T14:56:19.954Z,24.6
2019-02-16T14:59:25.915Z,24.6
2019-02-16T15:02:31.913Z,24.6
2019-02-16T15:05:37.946Z,24.6
2019-02-16T15:08:43.898Z,24.6
2019-02-16T15:11:49.785Z,24.6
2019-02-16T15:14:55.817Z,24.6
2019-02-16T15:18:03.682Z,24.6
2019-02-16T15:21:09.759Z,24.6
2019-02-16T15:24:15.745Z,24.6
2019-02-16T15:27:21.642Z,24.6
2019-02-16T15:30:30.104Z,24.6
2019-02-16T15:33:36.186Z,24.5
2019-02-16T15:36:42.154Z,24.5
2019-02-16T15:39:48.106Z,24.5
2019-02-16T15:42:54.064Z,24.5
2019-02-16T15:45:59.972Z,24.5
2019-02-16T15:49:05.986Z,24.6
2019-02-16T15:52:11.856Z,24.5
2019-02-16T15:55:17.927Z,24.6
2019-02-16T15:58:23.986Z,24.5
2019-02-16T16:01:30.075Z,24.6
2019-02-16T16:04:36.408Z,24.6
2019-02-16T16:07:42.272Z,24.6
2019-02-16T16:10:48.323Z,24.6
2019-02-16T16:13:54.287Z,24.7
2019-02-16T16:17:00.248Z,24.7
2019-02-16T16:20:06.112Z,24.7
2019-02-16T16:23:12.163Z,24.8
2019-02-16T16:26:20.272Z,24.8
2019-02-16T16:29:26.234Z,24.8
2019-02-16T16:32:32.174Z,24.8
2019-02-16T16:35:38.150Z,24.8
2019-02-16T16:38:44.138Z,24.9
2019-02-16T16:41:50.190Z,24.9
2019-02-16T16:44:56.077Z,24.9
2019-02-16T16:48:02.201Z,25
2019-02-16T16:51:08.160Z,25
2019-02-16T16:54:14.117Z,25
2019-02-16T16:57:20.075Z,25
2019-02-16T17:00:26.049Z,25.1
2019-02-16T17:03:31.996Z,25.1
2019-02-16T17:06:37.966Z,25.2
2019-02-16T17:09:43.922Z,25.2
2019-02-16T17:12:49.799Z,25.2
2019-02-16T17:15:55.844Z,25.2
2019-02-16T17:19:01.801Z,25.3
2019-02-16T17:22:07.774Z,25.3
2019-02-16T17:25:13.825Z,25.4
2019-02-16T17:28:19.799Z,25.4
2019-02-16T17:31:25.746Z,25.4
2019-02-16T17:34:31.809Z,25.5
2019-02-16T17:37:37.760Z,25.5
2019-02-16T17:40:43.719Z,25.5
2019-02-16T17:43:49.692Z,25.6
2019-02-16T17:46:56.465Z,25.7
2019-02-16T17:50:02.725Z,25.7
2019-02-16T17:53:08.598Z,25.7
2019-02-16T17:56:17.290Z,25.8
2019-02-16T17:59:23.190Z,25.8
2019-02-16T18:02:29.139Z,25.8
2019-02-16T18:05:35.193Z,25.9
2019-02-16T18:08:41.255Z,25.9
2019-02-16T18:11:47.172Z,25.9
2019-02-16T18:14:53.074Z,26
2019-02-16T18:17:59.142Z,26
2019-02-16T18:21:05.095Z,26
2019-02-16T18:24:11.273Z,26.1
2019-02-16T18:27:17.238Z,26.1
2019-02-16T18:30:23.282Z,26.2
2019-02-16T18:33:29.248Z,26.1
2019-02-16T18:36:35.217Z,26.1
2019-02-16T18:39:41.161Z,26.1
2019-02-16T18:42:47.227Z,26.2
2019-02-16T18:45:53.296Z,26.2
2019-02-16T18:48:59.257Z,26.3
2019-02-16T18:52:05.208Z,26.3
2019-02-16T18:55:11.982Z,26.3
2019-02-16T18:58:18.045Z,26.3
2019-02-16T19:01:24.008Z,26.3
2019-02-16T19:04:32.863Z,26.3
2019-02-16T19:07:38.912Z,26.3
2019-02-16T19:10:44.955Z,26.4
2019-02-16T19:13:50.918Z,26.4
2019-02-16T19:16:56.880Z,26.5
2019-02-16T19:20:02.842Z,26.5
2019-02-16T19:23:08.804Z,26.5
2019-02-16T19:26:14.860Z,26.5
2019-02-16T19:29:20.923Z,26.5
2019-02-16T19:32:26.800Z,26.5
2019-02-16T19:35:32.846Z,26.6
2019-02-16T19:38:38.907Z,26.6
2019-02-16T19:41:44.966Z,26.6
2019-02-16T19:44:51.030Z,26.7
2019-02-16T19:47:56.967Z,26.6
2019-02-16T19:51:03.052Z,26.6
2019-02-16T19:54:09.013Z,26.7
2019-02-16T19:57:14.969Z,26.7
2019-02-16T20:00:31.067Z,26.8
2019-02-16T20:03:37.028Z,26.8
2019-02-16T20:06:42.996Z,26.8
2019-02-16T20:09:49.566Z,26.8
2019-02-16T20:12:55.523Z,26.8
2019-02-16T20:16:01.638Z,26.8
2019-02-16T20:19:07.520Z,26.8
2019-02-16T20:22:13.514Z,26.9
2019-02-16T20:25:19.450Z,26.9
2019-02-16T20:28:25.425Z,26.9
2019-02-16T20:31:31.308Z,27
2019-02-16T20:34:37.222Z,26.9
2019-02-16T20:37:43.202Z,26.9
2019-02-16T20:40:49.273Z,27
2019-02-16T20:43:55.430Z,27
2019-02-16T20:47:01.303Z,27
2019-02-16T20:50:10.115Z,27.1
2019-02-16T20:53:15.990Z,27.1
2019-02-16T20:56:21.934Z,27.1
2019-02-16T20:59:27.892Z,27.1
2019-02-16T21:02:33.855Z,27.1
2019-02-16T21:05:39.912Z,27.1
2019-02-16T21:08:45.985Z,27.1
2019-02-16T21:11:52.041Z,27.1
2019-02-16T21:14:58.043Z,27.2
2019-02-16T21:18:04.071Z,27.2
2019-02-16T21:21:09.933Z,27.2
2019-02-16T21:24:15.984Z,27.2
2019-02-16T21:27:24.211Z,27.2
2019-02-16T21:30:30.255Z,27.2
2019-02-16T21:33:37.146Z,27.2
2019-02-16T21:36:43.013Z,27.3
2019-02-16T21:39:49.572Z,27.3
2019-02-16T21:42:55.529Z,27.3
2019-02-16T21:46:01.492Z,27.3
2019-02-16T21:49:07.448Z,27.3
2019-02-16T21:52:13.410Z,27.3
2019-02-16T21:55:21.974Z,27.3
2019-02-16T21:58:27.996Z,27.2
2019-02-16T22:01:33.961Z,27.3
2019-02-16T22:04:40.122Z,27.3
2019-02-16T22:07:45.994Z,27.3
2019-02-16T22:10:52.050Z,27.4
2019-02-16T22:14:00.740Z,27.4
2019-02-16T22:17:06.752Z,27.3
2019-02-16T22:20:12.647Z,27.4
2019-02-16T22:23:18.752Z,27.4
2019-02-16T22:26:24.922Z,27.3
2019-02-16T22:29:30.895Z,27.4
2019-02-16T22:32:36.932Z,27.4
2019-02-16T22:35:42.890Z,27.4
2019-02-16T22:38:48.858Z,27.4
2019-02-16T22:41:55.119Z,27.4
2019-02-16T22:45:01.183Z,27.4
2019-02-16T22:48:07.447Z,27.5
2019-02-16T22:51:13.405Z,27.4
2019-02-16T22:54:19.333Z,27.4
2019-02-16T22:57:25.326Z,27.4
2019-02-16T23:00:31.391Z,27.5
2019-02-16T23:03:37.345Z,27.5
2019-02-16T23:06:43.308Z,27.5
2019-02-16T23:09:49.268Z,27.5
2019-02-16T23:12:55.227Z,27.5
2019-02-16T23:16:04.054Z,27.5
2019-02-16T23:19:10.116Z,27.5
2019-02-16T23:22:15.993Z,27.5
2019-02-16T23:25:22.014Z,27.5
2019-02-16T23:28:28.100Z,27.5
2019-02-16T23:31:44.198Z,27.5
2019-02-16T23:34:50.071Z,27.5
2019-02-16T23:37:56.014Z,27.6
2019-02-16T23:41:01.887Z,27.6
2019-02-16T23:44:10.597Z,27.5
2019-02-16T23:47:16.563Z,27.5
2019-02-16T23:50:22.454Z,27.6
2019-02-16T23:53:28.475Z,27.6
2019-02-16T23:56:34.538Z,27.6
2019-02-16T23:59:40.502Z,27.6
